Date,TemperatureHighF,TemperatureAvgF,TemperatureLowF,DewpointHighF,DewpointAvgF,DewpointLowF,HumidityHigh,HumidityAvg,HumidityLow,PressureMaxIn,PressureMinIn,WindSpeedMaxMPH,WindSpeedAvgMPH,GustSpeedMaxMPH,PrecipitationSumIn
2013-5-1,90,73,57,44,34,28,44,26,14,30.08,29.85,22,3,22,0.00
2013-5-2,92,73,54,46,38,32,50,30,13,30.18,30.05,13,1,13,0.00
2013-5-3,92,76,58,52,47,40,66,39,17,30.06,29.76,12,1,12,0.00
2013-5-4,90,75,60,51,45,33,65,38,16,29.76,29.49,16,1,16,0.00
2013-5-5,75,66,55,50,48,46,77,55,37,29.81,29.55,16,2,16,0.00
2013-5-6,73,64,58,57,53,49,93,69,44,29.97,29.81,15,2,15,0.70
2013-5-7,74,65,58,57,54,50,94,69,46,30.03,29.96,12,0,12,0.01
2013-5-8,76,66,58,55,52,48,83,63,40,30.11,30.01,12,2,12,0.00
2013-5-9,83,66,53,59,53,49,87,65,41,30.13,30.01,14,2,14,0.00
2013-5-10,88,70,54,62,56,50,86,63,40,30.17,30.02,12,1,12,0.00
2013-5-11,94,76,59,64,58,53,80,56,31,30.11,30.00,7,0,7,0.00
2013-5-12,94,78,62,59,52,40,68,45,17,30.10,29.97,11,2,11,0.00
2013-5-13,92,76,60,60,52,47,66,47,24,30.05,29.89,11,1,11,0.00
2013-5-14,90,74,60,59,55,49,80,54,33,29.91,29.84,14,1,14,0.00
2013-5-15,79,67,56,52,49,45,69,53,36,30.01,29.91,13,0,13,0.00
2013-5-16,76,65,58,55,51,47,74,62,41,30.00,29.90,15,1,15,0.00
2013-5-17,77,64,53,53,47,42,78,57,29,30.04,29.94,16,1,16,0.00
2013-5-18,82,67,52,53,47,39,80,53,22,30.12,30.02,8,0,8,0.00
2013-5-19,85,72,58,53,48,44,73,46,25,30.11,29.94,12,0,12,0.00
2013-5-20,90,75,59,51,45,30,63,38,12,30.00,29.87,10,0,10,0.00
2013-5-21,83,70,60,50,45,29,63,43,15,29.95,29.81,1,0,1,0.00
2013-5-22,73,61,49,43,32,22,61,35,15,30.00,29.86,20,0,20,0.00
2013-5-23,75,62,49,46,41,32,77,50,22,29.98,29.87,12,1,12,0.00
2013-5-24,79,65,51,48,43,32,73,48,20,30.00,29.89,14,0,14,0.00
2013-5-25,79,64,52,50,46,43,75,55,29,30.00,29.92,11,0,11,0.00
2013-5-26,79,65,54,53,49,44,81,59,30,30.08,29.99,13,1,13,0.00
2013-5-27,68,61,55,56,51,47,92,70,55,30.09,30.00,12,2,12,0.06
2013-5-28,79,67,58,58,54,49,92,66,39,30.00,29.87,12,1,12,0.00
2013-5-29,81,69,57,56,52,37,89,58,21,29.93,29.84,15,2,15,0.07
2013-5-30,86,71,56,54,50,38,81,52,19,29.96,29.89,11,1,11,0.00
2013-5-31,92,75,56,56,50,46,83,47,22,29.99,29.86,20,2,20,0.00